sensor_id;sensor_type;location;lat;lon;timestamp;pressure;altitude;pressure_sealevel;temperature;humidity
68594;BME280;55563;52.416;13.548;2022-11-15T00:01:46;101134.97;;;3.40;100.00
68594;BME280;55563;52.416;13.548;2022-11-15T00:04:06;101139.72;;;3.37;100.00
68594;BME280;55563;52.416;13.548;2022-11-15T00:06:27;101135.53;;;3.29;100.00
68594;BME280;55563;52.416;13.548;2022-11-15T00:08:47;101125.53;;;3.33;100.00
68594;BME280;55563;52.416;13.548;2022-11-15T00:11:09;101132.75;;;3.37;100.00
68594;BME280;55563;52.416;13.548;2022-11-15T00:13:30;101137.94;;;3.31;100.00
68594;BME280;55563;52.416;13.548;2022-11-15T00:15:51;101132.53;;;3.26;100.00
68594;BME280;55563;52.416;13.548;2022-11-15T00:18:13;101132.53;;;3.19;100.00
68594;BME280;55563;52.416;13.548;2022-11-15T00:20:34;101124.72;;;3.19;100.00
68594;BME280;55563;52.416;13.548;2022-11-15T00:22:55;101121.72;;;3.22;100.00
68594;BME280;55563;52.416;13.548;2022-11-15T00:25:15;101123.53;;;3.22;100.00
68594;BME280;55563;52.416;13.548;2022-11-15T00:27:36;101118.53;;;3.14;100.00
68594;BME280;55563;52.416;13.548;2022-11-15T00:29:56;101112.16;;;3.23;100.00
68594;BME280;55563;52.416;13.548;2022-11-15T00:32:17;101107.94;;;3.22;100.00
68594;BME280;55563;52.416;13.548;2022-11-15T00:34:38;101120.94;;;3.15;100.00
68594;BME280;55563;52.416;13.548;2022-11-15T00:36:59;101107.94;;;3.08;100.00
68594;BME280;55563;52.416;13.548;2022-11-15T00:39:20;101109.53;;;3.10;100.00
68594;BME280;55563;52.416;13.548;2022-11-15T00:41:40;101110.72;;;3.07;100.00
68594;BME280;55563;52.416;13.548;2022-11-15T00:44:01;101099.56;;;3.06;100.00
68594;BME280;55563;52.416;13.548;2022-11-15T00:46:21;101097.72;;;3.00;100.00
68594;BME280;55563;52.416;13.548;2022-11-15T00:48:42;101092.34;;;3.08;100.00
68594;BME280;55563;52.416;13.548;2022-11-15T00:51:03;101094.16;;;3.01;100.00
68594;BME280;55563;52.416;13.548;2022-11-15T00:53:23;101100.72;;;2.97;100.00
68594;BME280;55563;52.416;13.548;2022-11-15T00:55:43;101100.91;;;2.96;100.00
68594;BME280;55563;52.416;13.548;2022-11-15T00:58:04;101080.56;;;2.99;100.00
68594;BME280;55563;52.416;13.548;2022-11-15T01:00:25;101094.13;;;2.95;100.00
68594;BME280;55563;52.416;13.548;2022-11-15T01:02:45;101095.13;;;2.94;100.00
68594;BME280;55563;52.416;13.548;2022-11-15T01:05:07;101083.34;;;2.98;100.00
68594;BME280;55563;52.416;13.548;2022-11-15T01:07:27;101094.75;;;2.97;100.00
68594;BME280;55563;52.416;13.548;2022-11-15T01:09:48;101077.75;;;3.01;100.00
68594;BME280;55563;52.416;13.548;2022-11-15T01:12:09;101082.34;;;2.99;100.00
68594;BME280;55563;52.416;13.548;2022-11-15T01:14:29;101076.13;;;2.93;100.00
68594;BME280;55563;52.416;13.548;2022-11-15T01:16:50;101084.16;;;2.92;100.00
68594;BME280;55563;52.416;13.548;2022-11-15T01:19:11;101076.34;;;2.92;100.00
68594;BME280;55563;52.416;13.548;2022-11-15T01:21:32;101083.53;;;2.90;100.00
68594;BME280;55563;52.416;13.548;2022-11-15T01:23:53;101077.53;;;2.89;100.00
68594;BME280;55563;52.416;13.548;2022-11-15T01:26:15;101066.56;;;2.87;100.00
68594;BME280;55563;52.416;13.548;2022-11-15T01:28:37;101068.94;;;2.82;100.00
68594;BME280;55563;52.416;13.548;2022-11-15T01:30:59;101060.34;;;2.82;100.00
68594;BME280;55563;52.416;13.548;2022-11-15T01:33:20;101061.34;;;2.81;100.00
68594;BME280;55563;52.416;13.548;2022-11-15T01:35:40;101047.75;;;2.79;100.00
68594;BME280;55563;52.416;13.548;2022-11-15T01:38:01;101048.38;;;2.81;100.00
68594;BME280;55563;52.416;13.548;2022-11-15T01:40:21;101056.34;;;2.79;100.00
68594;BME280;55563;52.416;13.548;2022-11-15T01:42:42;101059.16;;;2.78;100.00
68594;BME280;55563;52.416;13.548;2022-11-15T01:45:03;101055.75;;;2.77;100.00
68594;BME280;55563;52.416;13.548;2022-11-15T01:47:28;101050.78;;;2.82;100.00
68594;BME280;55563;52.416;13.548;2022-11-15T01:49:57;101046.41;;;2.83;100.00
68594;BME280;55563;52.416;13.548;2022-11-15T01:52:20;101038.19;;;2.79;100.00
68594;BME280;55563;52.416;13.548;2022-11-15T01:54:42;101039.75;;;2.74;100.00
68594;BME280;55563;52.416;13.548;2022-11-15T01:57:07;101034.78;;;2.72;100.00
68594;BME280;55563;52.416;13.548;2022-11-15T01:59:29;101037.38;;;2.72;100.00
68594;BME280;55563;52.416;13.548;2022-11-15T02:01:50;101026.38;;;2.70;100.00
68594;BME280;55563;52.416;13.548;2022-11-15T02:04:16;101023.41;;;2.67;100.00
68594;BME280;55563;52.416;13.548;2022-11-15T02:06:39;101019.59;;;2.69;100.00
68594;BME280;55563;52.416;13.548;2022-11-15T02:09:02;101012.84;;;2.81;100.00
68594;BME280;55563;52.416;13.548;2022-11-15T02:11:23;101021.00;;;2.78;100.00
68594;BME280;55563;52.416;13.548;2022-11-15T02:13:44;101019.41;;;2.71;100.00
68594;BME280;55563;52.416;13.548;2022-11-15T02:19:02;101004.88;;;2.83;100.00
68594;BME280;55563;52.416;13.548;2022-11-15T02:21:56;101010.00;;;2.70;100.00
68594;BME280;55563;52.416;13.548;2022-11-15T02:24:56;101006.81;;;2.74;100.00
68594;BME280;55563;52.416;13.548;2022-11-15T02:32:19;101005.22;;;2.67;100.00
68594;BME280;55563;52.416;13.548;2022-11-15T02:35:06;101011.81;;;2.62;100.00
68594;BME280;55563;52.416;13.548;2022-11-15T02:37:44;101010.59;;;2.58;100.00
68594;BME280;55563;52.416;13.548;2022-11-15T02:40:17;101011.78;;;2.56;100.00
68594;BME280;55563;52.416;13.548;2022-11-15T02:42:50;101005.19;;;2.47;100.00
68594;BME280;55563;52.416;13.548;2022-11-15T02:45:39;101005.59;;;2.50;100.00
68594;BME280;55563;52.416;13.548;2022-11-15T02:48:00;101005.59;;;2.50;100.00
68594;BME280;55563;52.416;13.548;2022-11-15T02:50:25;101006.38;;;2.51;100.00
68594;BME280;55563;52.416;13.548;2022-11-15T02:52:48;101001.41;;;2.49;100.00
68594;BME280;55563;52.416;13.548;2022-11-15T02:55:34;101003.38;;;2.47;100.00
68594;BME280;55563;52.416;13.548;2022-11-15T02:57:59;100996.78;;;2.45;100.00
68594;BME280;55563;52.416;13.548;2022-11-15T03:00:27;101001.38;;;2.43;100.00
68594;BME280;55563;52.416;13.548;2022-11-15T03:03:40;101003.19;;;2.42;100.00
68594;BME280;55563;52.416;13.548;2022-11-15T03:09:21;100990.22;;;2.49;100.00
68594;BME280;55563;52.416;13.548;2022-11-15T03:11:25;100988.41;;;2.43;100.00
68594;BME280;55563;52.416;13.548;2022-11-15T03:16:19;100989.22;;;2.43;100.00
68594;BME280;55563;52.416;13.548;2022-11-15T03:18:46;100992.81;;;2.42;100.00
68594;BME280;55563;52.416;13.548;2022-11-15T03:21:09;100989.81;;;2.39;100.00
68594;BME280;55563;52.416;13.548;2022-11-15T03:23:33;100985.41;;;2.39;100.00
68594;BME280;55563;52.416;13.548;2022-11-15T03:25:56;100981.25;;;2.51;100.00
68594;BME280;55563;52.416;13.548;2022-11-15T03:28:23;100995.56;;;2.41;100.00
68594;BME280;55563;52.416;13.548;2022-11-15T03:30:45;100991.19;;;2.41;100.00
68594;BME280;55563;52.416;13.548;2022-11-15T03:33:08;100994.59;;;2.42;100.00
68594;BME280;55563;52.416;13.548;2022-11-15T03:35:33;100988.00;;;2.46;100.00
68594;BME280;55563;52.416;13.548;2022-11-15T03:38:24;100988.25;;;2.71;100.00
68594;BME280;55563;52.416;13.548;2022-11-15T03:40:49;100982.09;;;2.72;100.00
68594;BME280;55563;52.416;13.548;2022-11-15T03:43:23;100983.47;;;2.61;100.00
68594;BME280;55563;52.416;13.548;2022-11-15T03:45:56;100982.66;;;2.54;100.00
68594;BME280;55563;52.416;13.548;2022-11-15T03:48:23;100971.06;;;2.50;100.00
68594;BME280;55563;52.416;13.548;2022-11-15T03:50:45;100974.66;;;2.49;100.00
68594;BME280;55563;52.416;13.548;2022-11-15T03:53:06;100984.63;;;2.45;100.00
68594;BME280;55563;52.416;13.548;2022-11-15T03:55:27;100983.81;;;2.38;100.00
68594;BME280;55563;52.416;13.548;2022-11-15T03:57:51;100984.63;;;2.39;100.00
68594;BME280;55563;52.416;13.548;2022-11-15T04:00:13;100981.41;;;2.37;100.00
68594;BME280;55563;52.416;13.548;2022-11-15T04:02:34;100982.22;;;2.37;100.00
68594;BME280;55563;52.416;13.548;2022-11-15T04:04:55;100974.03;;;2.40;100.00
68594;BME280;55563;52.416;13.548;2022-11-15T04:07:15;100980.59;;;2.36;100.00
68594;BME280;55563;52.416;13.548;2022-11-15T04:09:36;100969.66;;;2.41;100.00
68594;BME280;55563;52.416;13.548;2022-11-15T04:12:16;100981.25;;;2.51;100.00
68594;BME280;55563;52.416;13.548;2022-11-15T04:14:50;100969.69;;;2.54;100.00
68594;BME280;55563;52.416;13.548;2022-11-15T04:17:27;100969.28;;;2.44;100.00
68594;BME280;55563;52.416;13.548;2022-11-15T04:19:47;100973.44;;;2.45;100.00
68594;BME280;55563;52.416;13.548;2022-11-15T04:22:28;100960.28;;;2.46;100.00
68594;BME280;55563;52.416;13.548;2022-11-15T04:25:08;100966.88;;;2.55;100.00
68594;BME280;55563;52.416;13.548;2022-11-15T04:27:29;100957.13;;;2.57;100.00
68594;BME280;55563;52.416;13.548;2022-11-15T04:29:50;100951.13;;;2.57;100.00
68594;BME280;55563;52.416;13.548;2022-11-15T04:32:10;100955.28;;;2.45;100.00
68594;BME280;55563;52.416;13.548;2022-11-15T04:34:36;100958.47;;;2.34;100.00
68594;BME280;55563;52.416;13.548;2022-11-15T04:36:58;100957.84;;;2.32;100.00
68594;BME280;55563;52.416;13.548;2022-11-15T04:39:35;100955.66;;;2.29;100.00
68594;BME280;55563;52.416;13.548;2022-11-15T04:41:55;100953.91;;;2.42;100.00
68594;BME280;55563;52.416;13.548;2022-11-15T04:44:16;100956.47;;;2.36;100.00
68594;BME280;55563;52.416;13.548;2022-11-15T04:46:37;100955.66;;;2.29;100.00
68594;BME280;55563;52.416;13.548;2022-11-15T04:48:57;100953.06;;;2.29;100.00
68594;BME280;55563;52.416;13.548;2022-11-15T04:51:18;100953.44;;;2.26;100.00
68594;BME280;55563;52.416;13.548;2022-11-15T04:53:39;100948.84;;;2.21;100.00
68594;BME280;55563;52.416;13.548;2022-11-15T04:55:59;100949.88;;;2.20;100.00
68594;BME280;55563;52.416;13.548;2022-11-15T04:58:20;100951.44;;;2.21;100.00
68594;BME280;55563;52.416;13.548;2022-11-15T05:00:41;100951.84;;;2.18;100.00
68594;BME280;55563;52.416;13.548;2022-11-15T05:03:01;100943.44;;;2.16;100.00
68594;BME280;55563;52.416;13.548;2022-11-15T05:05:42;100952.63;;;2.18;100.00
68594;BME280;55563;52.416;13.548;2022-11-15T05:08:03;100947.63;;;2.17;100.00
68594;BME280;55563;52.416;13.548;2022-11-15T05:10:23;100943.25;;;2.17;100.00
68594;BME280;55563;52.416;13.548;2022-11-15T05:12:44;100938.06;;;2.17;100.00
68594;BME280;55563;52.416;13.548;2022-11-15T05:15:05;100937.88;;;2.26;100.00
68594;BME280;55563;52.416;13.548;2022-11-15T05:17:26;100943.72;;;2.34;100.00
68594;BME280;55563;52.416;13.548;2022-11-15T05:19:46;100938.13;;;2.44;100.00
68594;BME280;55563;52.416;13.548;2022-11-15T05:22:07;100938.94;;;2.44;100.00
68594;BME280;55563;52.416;13.548;2022-11-15T05:24:28;100939.50;;;2.27;100.00
68594;BME280;55563;52.416;13.548;2022-11-15T05:26:48;100944.69;;;2.20;100.00
68594;BME280;55563;52.416;13.548;2022-11-15T05:29:09;100938.88;;;2.18;100.00
68594;BME280;55563;52.416;13.548;2022-11-15T05:31:30;100934.91;;;2.22;100.00
68594;BME280;55563;52.416;13.548;2022-11-15T05:33:51;100939.31;;;2.28;100.00
68594;BME280;55563;52.416;13.548;2022-11-15T05:38:48;100944.50;;;2.28;100.00
68594;BME280;55563;52.416;13.548;2022-11-15T05:41:11;100944.88;;;2.25;100.00
68594;BME280;55563;52.416;13.548;2022-11-15T05:43:35;100945.66;;;2.26;100.00
68594;BME280;55563;52.416;13.548;2022-11-15T05:45:56;100943.09;;;2.32;100.00
68594;BME280;55563;52.416;13.548;2022-11-15T05:48:18;100943.50;;;2.29;100.00
68594;BME280;55563;52.416;13.548;2022-11-15T05:50:43;100948.69;;;2.36;100.00
68594;BME280;55563;52.416;13.548;2022-11-15T05:53:06;100955.28;;;2.38;100.00
68594;BME280;55563;52.416;13.548;2022-11-15T05:55:27;100959.84;;;2.36;100.00
68594;BME280;55563;52.416;13.548;2022-11-15T05:57:48;100961.06;;;2.34;100.00
68594;BME280;55563;52.416;13.548;2022-11-15T06:00:09;100952.47;;;2.33;100.00
68594;BME280;55563;52.416;13.548;2022-11-15T06:02:30;100953.91;;;2.42;100.00
68594;BME280;55563;52.416;13.548;2022-11-15T06:04:51;100958.72;;;2.65;100.00
68594;BME280;55563;52.416;13.548;2022-11-15T06:07:11;100960.13;;;2.68;100.00
68594;BME280;55563;52.416;13.548;2022-11-15T06:09:32;100958.94;;;2.63;100.00
68594;BME280;55563;52.416;13.548;2022-11-15T06:11:58;100964.13;;;2.63;100.00
68594;BME280;55563;52.416;13.548;2022-11-15T06:14:19;100963.69;;;2.60;100.00
68594;BME280;55563;52.416;13.548;2022-11-15T06:16:40;100955.72;;;2.68;100.00
68594;BME280;55563;52.416;13.548;2022-11-15T06:19:00;100962.50;;;2.69;100.00
68594;BME280;55563;52.416;13.548;2022-11-15T06:21:21;100958.72;;;2.72;100.00
68594;BME280;55563;52.416;13.548;2022-11-15T06:23:42;100961.31;;;2.85;100.00
68594;BME280;55563;52.416;13.548;2022-11-15T06:26:03;100965.50;;;2.79;100.00
68594;BME280;55563;52.416;13.548;2022-11-15T06:28:23;100965.50;;;2.79;100.00
68594;BME280;55563;52.416;13.548;2022-11-15T06:30:44;100965.72;;;2.84;100.00
68594;BME280;55563;52.416;13.548;2022-11-15T06:33:05;100971.50;;;2.86;100.00
68594;BME280;55563;52.416;13.548;2022-11-15T06:35:25;100974.50;;;2.77;100.00
68594;BME280;55563;52.416;13.548;2022-11-15T06:37:46;100973.28;;;2.79;100.00
68594;BME280;55563;52.416;13.548;2022-11-15T06:40:08;100972.50;;;2.79;100.00
68594;BME280;55563;52.416;13.548;2022-11-15T06:42:30;100972.72;;;2.77;100.00
68594;BME280;55563;52.416;13.548;2022-11-15T06:44:50;100969.09;;;2.85;100.00
68594;BME280;55563;52.416;13.548;2022-11-15T06:47:11;100966.13;;;2.94;100.00
68594;BME280;55563;52.416;13.548;2022-11-15T06:49:31;100969.91;;;3.05;100.00
68594;BME280;55563;52.416;13.548;2022-11-15T06:51:52;100977.50;;;3.06;100.00
68594;BME280;55563;52.416;13.548;2022-11-15T06:54:12;100975.72;;;3.00;100.00
68594;BME280;55563;52.416;13.548;2022-11-15T06:56:34;100968.72;;;3.14;100.00
68594;BME280;55563;52.416;13.548;2022-11-15T06:58:55;100970.91;;;3.30;100.00
68594;BME280;55563;52.416;13.548;2022-11-15T07:01:16;100980.31;;;3.12;100.00
68594;BME280;55563;52.416;13.548;2022-11-15T07:03:40;100982.69;;;3.13;100.00
68594;BME280;55563;52.416;13.548;2022-11-15T07:06:01;100986.88;;;3.27;100.00
68594;BME280;55563;52.416;13.548;2022-11-15T07:08:23;100981.88;;;3.26;100.00
68594;BME280;55563;52.416;13.548;2022-11-15T07:10:44;100971.69;;;3.24;100.00
68594;BME280;55563;52.416;13.548;2022-11-15T07:13:05;100983.47;;;3.27;100.00
68594;BME280;55563;52.416;13.548;2022-11-15T07:15:26;100980.03;;;3.46;100.00
68594;BME280;55563;52.416;13.548;2022-11-15T07:17:46;100983.88;;;3.30;100.00
68594;BME280;55563;52.416;13.548;2022-11-15T07:20:07;100984.25;;;3.54;100.00
68594;BME280;55563;52.416;13.548;2022-11-15T07:22:28;100984.00;;;3.62;100.00
68594;BME280;55563;52.416;13.548;2022-11-15T07:24:48;100980.63;;;3.61;100.00
68594;BME280;55563;52.416;13.548;2022-11-15T07:27:09;100994.00;;;3.65;100.00
68594;BME280;55563;52.416;13.548;2022-11-15T07:29:29;100982.16;;;3.75;100.00
68594;BME280;55563;52.416;13.548;2022-11-15T07:31:50;100980.56;;;3.81;100.00
68594;BME280;55563;52.416;13.548;2022-11-15T07:34:10;100982.34;;;3.87;100.00
68594;BME280;55563;52.416;13.548;2022-11-15T07:36:31;100987.56;;;3.80;100.00
68594;BME280;55563;52.416;13.548;2022-11-15T07:38:52;100991.50;;;3.96;100.00
68594;BME280;55563;52.416;13.548;2022-11-15T07:41:12;100991.44;;;4.09;100.00
68594;BME280;55563;52.416;13.548;2022-11-15T07:43:33;100993.59;;;4.19;100.00
68594;BME280;55563;52.416;13.548;2022-11-15T07:45:54;100984.59;;;4.21;100.00
68594;BME280;55563;52.416;13.548;2022-11-15T07:48:14;100992.00;;;4.24;100.00
68594;BME280;55563;52.416;13.548;2022-11-15T07:50:35;100986.34;;;4.34;100.00
68594;BME280;55563;52.416;13.548;2022-11-15T07:52:57;100984.06;;;4.44;100.00
68594;BME280;55563;52.416;13.548;2022-11-15T07:55:17;100980.81;;;4.55;100.00
68594;BME280;55563;52.416;13.548;2022-11-15T07:57:38;100980.81;;;5.30;100.00
68594;BME280;55563;52.416;13.548;2022-11-15T07:59:59;100978.88;;;5.25;100.00
68594;BME280;55563;52.416;13.548;2022-11-15T08:02:19;100977.22;;;5.06;100.00
68594;BME280;55563;52.416;13.548;2022-11-15T08:04:40;100984.50;;;4.97;100.00
68594;BME280;55563;52.416;13.548;2022-11-15T08:07:01;100976.06;;;5.02;100.00
68594;BME280;55563;52.416;13.548;2022-11-15T08:09:21;100976.06;;;5.02;100.00
68594;BME280;55563;52.416;13.548;2022-11-15T08:11:42;100971.00;;;5.07;100.00
68594;BME280;55563;52.416;13.548;2022-11-15T08:14:02;100967.72;;;5.18;100.00
68594;BME280;55563;52.416;13.548;2022-11-15T08:16:23;100975.47;;;5.24;100.00
68594;BME280;55563;52.416;13.548;2022-11-15T08:18:43;100971.56;;;5.34;100.00
68594;BME280;55563;52.416;13.548;2022-11-15T08:21:04;100967.50;;;5.38;100.00
68594;BME280;55563;52.416;13.548;2022-11-15T08:23:24;100963.84;;;5.45;100.00
68594;BME280;55563;52.416;13.548;2022-11-15T08:25:45;100974.03;;;5.47;100.00
68594;BME280;55563;52.416;13.548;2022-11-15T08:28:07;100970.00;;;5.51;100.00
68594;BME280;55563;52.416;13.548;2022-11-15T08:30:28;100964.19;;;5.67;100.00
68594;BME280;55563;52.416;13.548;2022-11-15T08:32:50;100969.13;;;5.75;100.00
68594;BME280;55563;52.416;13.548;2022-11-15T08:35:11;100967.19;;;5.70;100.00
68594;BME280;55563;52.416;13.548;2022-11-15T08:37:32;100973.03;;;5.84;100.00
68594;BME280;55563;52.416;13.548;2022-11-15T08:39:52;100967.28;;;5.76;100.00
68594;BME280;55563;52.416;13.548;2022-11-15T08:42:13;100967.47;;;5.99;100.00
68594;BME280;55563;52.416;13.548;2022-11-15T08:44:35;100972.38;;;6.07;100.00
68594;BME280;55563;52.416;13.548;2022-11-15T08:46:55;100966.06;;;6.14;100.00
68594;BME280;55563;52.416;13.548;2022-11-15T08:49:16;100967.94;;;6.26;100.00
68594;BME280;55563;52.416;13.548;2022-11-15T08:51:36;100958.41;;;6.31;100.00
68594;BME280;55563;52.416;13.548;2022-11-15T08:53:57;100963.19;;;6.34;100.00
68594;BME280;55563;52.416;13.548;2022-11-15T08:56:18;100971.28;;;6.44;100.00
68594;BME280;55563;52.416;13.548;2022-11-15T08:58:39;100973.00;;;6.50;100.00
68594;BME280;55563;52.416;13.548;2022-11-15T09:01:00;100972.34;;;6.55;100.00
68594;BME280;55563;52.416;13.548;2022-11-15T09:03:20;100971.31;;;6.56;100.00
68594;BME280;55563;52.416;13.548;2022-11-15T09:05:41;100970.66;;;6.61;100.00
68594;BME280;55563;52.416;13.548;2022-11-15T09:08:01;100968.97;;;6.66;100.00
68594;BME280;55563;52.416;13.548;2022-11-15T09:10:22;100967.78;;;6.62;100.00
68594;BME280;55563;52.416;13.548;2022-11-15T09:12:42;100975.16;;;6.42;100.00
68594;BME280;55563;52.416;13.548;2022-11-15T09:15:04;100964.19;;;6.63;100.00
68594;BME280;55563;52.416;13.548;2022-11-15T09:17:25;100969.31;;;6.81;100.00
68594;BME280;55563;52.416;13.548;2022-11-15T09:19:46;100965.25;;;6.85;100.00
68594;BME280;55563;52.416;13.548;2022-11-15T09:22:07;100965.69;;;6.71;100.00
68594;BME280;55563;52.416;13.548;2022-11-15T09:24:28;100968.16;;;6.77;100.00
68594;BME280;55563;52.416;13.548;2022-11-15T09:26:51;100965.47;;;6.95;100.00
68594;BME280;55563;52.416;13.548;2022-11-15T09:29:12;100958.34;;;7.14;100.00
68594;BME280;55563;52.416;13.548;2022-11-15T09:31:33;100965.50;;;7.19;100.00
68594;BME280;55563;52.416;13.548;2022-11-15T09:33:53;100956.84;;;7.30;100.00
68594;BME280;55563;52.416;13.548;2022-11-15T09:36:14;100958.78;;;7.46;100.00
68594;BME280;55563;52.416;13.548;2022-11-15T09:38:35;100964.66;;;7.53;100.00
68594;BME280;55563;52.416;13.548;2022-11-15T09:43:49;100962.72;;;7.60;100.00
68594;BME280;55563;52.416;13.548;2022-11-15T09:46:28;100967.06;;;7.55;100.00
68594;BME280;55563;52.416;13.548;2022-11-15T09:48:55;100958.66;;;7.53;100.00
68594;BME280;55563;52.416;13.548;2022-11-15T09:51:24;100960.75;;;7.79;100.00
68594;BME280;55563;52.416;13.548;2022-11-15T09:53:35;100963.03;;;7.75;100.00
68594;BME280;55563;52.416;13.548;2022-11-15T09:55:55;100954.59;;;7.85;100.00
68594;BME280;55563;52.416;13.548;2022-11-15T09:58:23;100958.22;;;7.96;100.00
68594;BME280;55563;52.416;13.548;2022-11-15T10:00:35;100957.44;;;8.12;100.00
68594;BME280;55563;52.416;13.548;2022-11-15T10:05:14;100945.34;;;8.34;100.00
68594;BME280;55563;52.416;13.548;2022-11-15T10:07:44;100951.59;;;8.21;100.00
68594;BME280;55563;52.416;13.548;2022-11-15T10:11:59;100956.13;;;8.38;100.00
68594;BME280;55563;52.416;13.548;2022-11-15T10:14:03;100939.75;;;8.30;100.00
68594;BME280;55563;52.416;13.548;2022-11-15T10:16:23;100931.06;;;8.58;100.00
68594;BME280;55563;52.416;13.548;2022-11-15T10:18:35;100931.94;;;8.64;100.00
68594;BME280;55563;52.416;13.548;2022-11-15T10:20:46;100926.16;;;8.62;100.00
68594;BME280;55563;52.416;13.548;2022-11-15T10:22:50;100922.06;;;8.88;100.00
68594;BME280;55563;52.416;13.548;2022-11-15T10:25:00;100910.25;;;8.85;100.00
68594;BME280;55563;52.416;13.548;2022-11-15T10:27:13;100915.09;;;8.93;100.00
68594;BME280;55563;52.416;13.548;2022-11-15T10:29:20;100914.69;;;9.01;100.00
68594;BME280;55563;52.416;13.548;2022-11-15T10:31:26;100905.09;;;9.29;100.00
68594;BME280;55563;52.416;13.548;2022-11-15T10:35:39;100897.91;;;9.41;100.00
68594;BME280;55563;52.416;13.548;2022-11-15T10:37:40;100887.28;;;9.52;100.00
68594;BME280;55563;52.416;13.548;2022-11-15T10:39:41;100890.69;;;9.75;100.00
68594;BME280;55563;52.416;13.548;2022-11-15T10:41:42;100890.31;;;9.88;100.00
68594;BME280;55563;52.416;13.548;2022-11-15T10:43:43;100889.25;;;9.89;100.00
68594;BME280;55563;52.416;13.548;2022-11-15T10:45:45;100884.66;;;10.01;100.00
68594;BME280;55563;52.416;13.548;2022-11-15T10:47:46;100876.47;;;9.71;100.00
68594;BME280;55563;52.416;13.548;2022-11-15T10:50:26;100882.00;;;9.96;100.00
68594;BME280;55563;52.416;13.548;2022-11-15T10:52:29;100876.34;;;9.82;100.00
68594;BME280;55563;52.416;13.548;2022-11-15T10:54:37;100880.41;;;9.95;100.00
68594;BME280;55563;52.416;13.548;2022-11-15T10:56:41;100872.34;;;10.01;100.00
68594;BME280;55563;52.416;13.548;2022-11-15T10:58:50;100870.91;;;10.16;100.00
68594;BME280;55563;52.416;13.548;2022-11-15T11:00:52;100872.16;;;10.13;100.00
68594;BME280;55563;52.416;13.548;2022-11-15T11:03:01;100862.63;;;10.29;100.00
68594;BME280;55563;52.416;13.548;2022-11-15T11:05:05;100869.00;;;10.38;100.00
68594;BME280;55563;52.416;13.548;2022-11-15T11:07:20;100865.03;;;10.08;100.00
68594;BME280;55563;52.416;13.548;2022-11-15T11:09:28;100862.28;;;10.20;100.00
68594;BME280;55563;52.416;13.548;2022-11-15T11:11:49;100862.06;;;10.27;100.00
68594;BME280;55563;52.416;13.548;2022-11-15T11:13:51;100858.75;;;10.41;100.00
68594;BME280;55563;52.416;13.548;2022-11-15T11:16:07;100861.19;;;10.48;100.00
68594;BME280;55563;52.416;13.548;2022-11-15T11:18:20;100856.97;;;10.47;100.00
68594;BME280;55563;52.416;13.548;2022-11-15T11:20:39;100848.38;;;10.57;100.00
68594;BME280;55563;52.416;13.548;2022-11-15T11:25:41;100849.63;;;10.49;100.00
68594;BME280;55563;52.416;13.548;2022-11-15T11:27:39;100844.69;;;10.58;100.00
68594;BME280;55563;52.416;13.548;2022-11-15T11:34:53;100832.47;;;10.73;100.00
68594;BME280;55563;52.416;13.548;2022-11-15T11:39:51;100824.56;;;10.73;100.00
68594;BME280;55563;52.416;13.548;2022-11-15T11:42:24;100818.31;;;10.89;100.00
68594;BME280;55563;52.416;13.548;2022-11-15T11:49:09;100813.97;;;11.15;100.00
68594;BME280;55563;52.416;13.548;2022-11-15T11:51:17;100818.22;;;11.21;100.00
68594;BME280;55563;52.416;13.548;2022-11-15T11:53:45;100812.66;;;11.18;100.00
68594;BME280;55563;52.416;13.548;2022-11-15T11:55:53;100811.88;;;11.22;100.00
68594;BME280;55563;52.416;13.548;2022-11-15T11:58:16;100811.16;;;11.27;100.00
68594;BME280;55563;52.416;13.548;2022-11-15T12:00:20;100816.09;;;11.23;100.00
68594;BME280;55563;52.416;13.548;2022-11-15T12:02:29;100811.41;;;11.30;100.00
68594;BME280;55563;52.416;13.548;2022-11-15T12:04:37;100816.09;;;11.23;100.00
68594;BME280;55563;52.416;13.548;2022-11-15T12:07:02;100816.16;;;11.33;100.00
68594;BME280;55563;52.416;13.548;2022-11-15T12:09:33;100804.06;;;11.43;100.00
68594;BME280;55563;52.416;13.548;2022-11-15T12:11:48;100804.09;;;11.53;100.00
68594;BME280;55563;52.416;13.548;2022-11-15T12:13:56;100801.72;;;11.61;100.00
68594;BME280;55563;52.416;13.548;2022-11-15T12:16:08;100795.97;;;11.69;100.00
68594;BME280;55563;52.416;13.548;2022-11-15T12:18:13;100796.00;;;11.74;100.00
68594;BME280;55563;52.416;13.548;2022-11-15T12:20:21;100797.56;;;11.80;100.00
68594;BME280;55563;52.416;13.548;2022-11-15T12:22:25;100792.88;;;11.88;100.00
68594;BME280;55563;52.416;13.548;2022-11-15T12:24:34;100786.00;;;11.87;100.00
68594;BME280;55563;52.416;13.548;2022-11-15T12:26:43;100783.63;;;11.80;100.00
68594;BME280;55563;52.416;13.548;2022-11-15T12:31:02;100776.25;;;11.87;100.00
68594;BME280;55563;52.416;13.548;2022-11-15T12:33:04;100774.69;;;11.96;100.00
68594;BME280;55563;52.416;13.548;2022-11-15T12:35:21;100771.25;;;11.96;100.00
68594;BME280;55563;52.416;13.548;2022-11-15T12:42:41;100760.22;;;11.99;100.00
68594;BME280;55563;52.416;13.548;2022-11-15T12:49:03;100761.75;;;12.10;100.00
68594;BME280;55563;52.416;13.548;2022-11-15T12:51:08;100760.97;;;12.09;100.00
68594;BME280;55563;52.416;13.548;2022-11-15T12:53:27;100754.41;;;12.17;100.00
68594;BME280;55563;52.416;13.548;2022-11-15T12:55:31;100757.81;;;12.12;100.00